sensor_id;sensor_type;location;lat;lon;timestamp;P1;durP1;ratioP1;P2;durP2;ratioP2
78612;SDS011;67933;51.060;3.638;2023-05-17T00:02:16;3.08;;;2.30;;
78612;SDS011;67933;51.060;3.638;2023-05-17T00:04:42;4.82;;;2.78;;
78612;SDS011;67933;51.060;3.638;2023-05-17T00:07:08;6.07;;;2.92;;
78612;SDS011;67933;51.060;3.638;2023-05-17T00:09:34;6.97;;;2.63;;
78612;SDS011;67933;51.060;3.638;2023-05-17T00:12:00;5.63;;;2.80;;
78612;SDS011;67933;51.060;3.638;2023-05-17T00:14:25;5.25;;;3.00;;
78612;SDS011;67933;51.060;3.638;2023-05-17T00:16:50;5.38;;;3.15;;
78612;SDS011;67933;51.060;3.638;2023-05-17T00:19:16;7.07;;;3.15;;
78612;SDS011;67933;51.060;3.638;2023-05-17T00:21:42;6.20;;;3.60;;
78612;SDS011;67933;51.060;3.638;2023-05-17T00:24:07;5.80;;;2.80;;
78612;SDS011;67933;51.060;3.638;2023-05-17T00:26:33;6.72;;;2.83;;
78612;SDS011;67933;51.060;3.638;2023-05-17T00:28:58;6.47;;;2.95;;
78612;SDS011;67933;51.060;3.638;2023-05-17T00:31:24;4.10;;;2.95;;
78612;SDS011;67933;51.060;3.638;2023-05-17T00:33:49;6.55;;;2.88;;
78612;SDS011;67933;51.060;3.638;2023-05-17T00:36:15;6.05;;;2.95;;
78612;SDS011;67933;51.060;3.638;2023-05-17T00:38:40;5.18;;;2.35;;
78612;SDS011;67933;51.060;3.638;2023-05-17T00:41:06;5.85;;;3.15;;
78612;SDS011;67933;51.060;3.638;2023-05-17T00:43:31;4.55;;;2.63;;
78612;SDS011;67933;51.060;3.638;2023-05-17T00:45:56;4.90;;;2.80;;
78612;SDS011;67933;51.060;3.638;2023-05-17T00:48:22;4.35;;;2.80;;
78612;SDS011;67933;51.060;3.638;2023-05-17T00:50:51;6.20;;;2.83;;
78612;SDS011;67933;51.060;3.638;2023-05-17T00:53:17;4.72;;;3.10;;
78612;SDS011;67933;51.060;3.638;2023-05-17T00:55:43;6.60;;;3.55;;
78612;SDS011;67933;51.060;3.638;2023-05-17T00:58:10;6.43;;;3.33;;
78612;SDS011;67933;51.060;3.638;2023-05-17T01:00:36;5.13;;;3.65;;
78612;SDS011;67933;51.060;3.638;2023-05-17T01:03:02;3.97;;;2.50;;
78612;SDS011;67933;51.060;3.638;2023-05-17T01:05:27;5.05;;;2.80;;
78612;SDS011;67933;51.060;3.638;2023-05-17T01:07:54;5.43;;;3.58;;
78612;SDS011;67933;51.060;3.638;2023-05-17T01:10:19;7.05;;;3.40;;
78612;SDS011;67933;51.060;3.638;2023-05-17T01:13:01;7.25;;;3.45;;
78612;SDS011;67933;51.060;3.638;2023-05-17T01:15:35;5.60;;;2.80;;
78612;SDS011;67933;51.060;3.638;2023-05-17T01:18:11;5.25;;;3.00;;
78612;SDS011;67933;51.060;3.638;2023-05-17T01:20:43;3.42;;;2.10;;
78612;SDS011;67933;51.060;3.638;2023-05-17T01:26:07;3.80;;;2.38;;
78612;SDS011;67933;51.060;3.638;2023-05-17T01:28:38;6.00;;;2.50;;
78612;SDS011;67933;51.060;3.638;2023-05-17T01:31:05;4.63;;;2.92;;
78612;SDS011;67933;51.060;3.638;2023-05-17T01:33:32;6.22;;;3.35;;
78612;SDS011;67933;51.060;3.638;2023-05-17T01:35:58;6.82;;;3.20;;
78612;SDS011;67933;51.060;3.638;2023-05-17T01:38:24;5.03;;;3.03;;
78612;SDS011;67933;51.060;3.638;2023-05-17T01:46:23;5.75;;;3.78;;
78612;SDS011;67933;51.060;3.638;2023-05-17T01:51:54;6.15;;;3.13;;
78612;SDS011;67933;51.060;3.638;2023-05-17T01:54:30;4.22;;;2.80;;
78612;SDS011;67933;51.060;3.638;2023-05-17T01:57:00;6.53;;;4.25;;
78612;SDS011;67933;51.060;3.638;2023-05-17T01:59:30;5.57;;;3.50;;
78612;SDS011;67933;51.060;3.638;2023-05-17T02:01:58;6.30;;;4.15;;
78612;SDS011;67933;51.060;3.638;2023-05-17T02:04:32;5.68;;;3.75;;
78612;SDS011;67933;51.060;3.638;2023-05-17T02:06:58;7.13;;;4.20;;
78612;SDS011;67933;51.060;3.638;2023-05-17T02:09:23;6.20;;;3.65;;
78612;SDS011;67933;51.060;3.638;2023-05-17T02:11:49;6.43;;;3.75;;
78612;SDS011;67933;51.060;3.638;2023-05-17T02:14:14;7.10;;;3.45;;
78612;SDS011;67933;51.060;3.638;2023-05-17T02:16:40;7.65;;;3.55;;
78612;SDS011;67933;51.060;3.638;2023-05-17T02:19:05;7.30;;;3.95;;
78612;SDS011;67933;51.060;3.638;2023-05-17T02:21:33;5.55;;;2.83;;
78612;SDS011;67933;51.060;3.638;2023-05-17T02:23:58;7.80;;;4.35;;
78612;SDS011;67933;51.060;3.638;2023-05-17T02:26:24;6.70;;;2.97;;
78612;SDS011;67933;51.060;3.638;2023-05-17T02:28:49;6.05;;;3.53;;
78612;SDS011;67933;51.060;3.638;2023-05-17T02:31:14;8.77;;;2.92;;
78612;SDS011;67933;51.060;3.638;2023-05-17T02:33:40;5.95;;;3.42;;
78612;SDS011;67933;51.060;3.638;2023-05-17T02:36:05;4.82;;;2.80;;
78612;SDS011;67933;51.060;3.638;2023-05-17T02:38:31;3.75;;;2.40;;
78612;SDS011;67933;51.060;3.638;2023-05-17T02:40:56;4.47;;;2.67;;
78612;SDS011;67933;51.060;3.638;2023-05-17T02:43:21;4.30;;;2.97;;
78612;SDS011;67933;51.060;3.638;2023-05-17T02:45:47;5.55;;;2.67;;
78612;SDS011;67933;51.060;3.638;2023-05-17T02:48:12;4.00;;;2.65;;
78612;SDS011;67933;51.060;3.638;2023-05-17T02:50:38;5.35;;;2.95;;
78612;SDS011;67933;51.060;3.638;2023-05-17T02:53:03;6.20;;;3.22;;
78612;SDS011;67933;51.060;3.638;2023-05-17T02:55:29;5.05;;;2.83;;
78612;SDS011;67933;51.060;3.638;2023-05-17T02:57:54;6.00;;;3.08;;
78612;SDS011;67933;51.060;3.638;2023-05-17T03:00:20;7.20;;;3.38;;
78612;SDS011;67933;51.060;3.638;2023-05-17T03:02:45;5.60;;;3.15;;
78612;SDS011;67933;51.060;3.638;2023-05-17T03:05:10;6.65;;;3.25;;
78612;SDS011;67933;51.060;3.638;2023-05-17T03:07:36;9.15;;;3.75;;
78612;SDS011;67933;51.060;3.638;2023-05-17T03:10:02;5.57;;;2.72;;
78612;SDS011;67933;51.060;3.638;2023-05-17T03:12:27;3.22;;;2.55;;
78612;SDS011;67933;51.060;3.638;2023-05-17T03:14:52;2.88;;;2.42;;
78612;SDS011;67933;51.060;3.638;2023-05-17T03:17:18;4.15;;;2.58;;
78612;SDS011;67933;51.060;3.638;2023-05-17T03:19:43;5.30;;;2.60;;
78612;SDS011;67933;51.060;3.638;2023-05-17T03:22:08;4.15;;;2.55;;
78612;SDS011;67933;51.060;3.638;2023-05-17T03:24:34;4.85;;;2.35;;
78612;SDS011;67933;51.060;3.638;2023-05-17T03:27:00;3.88;;;2.05;;
78612;SDS011;67933;51.060;3.638;2023-05-17T03:29:25;4.53;;;2.50;;
78612;SDS011;67933;51.060;3.638;2023-05-17T03:31:51;4.05;;;2.42;;
78612;SDS011;67933;51.060;3.638;2023-05-17T03:34:17;4.68;;;2.78;;
78612;SDS011;67933;51.060;3.638;2023-05-17T03:36:42;7.32;;;2.83;;
78612;SDS011;67933;51.060;3.638;2023-05-17T03:39:07;3.72;;;1.95;;
78612;SDS011;67933;51.060;3.638;2023-05-17T03:41:33;2.85;;;2.00;;
78612;SDS011;67933;51.060;3.638;2023-05-17T03:43:58;3.67;;;2.15;;
78612;SDS011;67933;51.060;3.638;2023-05-17T03:46:24;3.72;;;2.28;;
78612;SDS011;67933;51.060;3.638;2023-05-17T03:48:49;5.40;;;3.53;;
78612;SDS011;67933;51.060;3.638;2023-05-17T03:51:15;6.03;;;3.60;;
78612;SDS011;67933;51.060;3.638;2023-05-17T03:53:41;4.25;;;2.88;;
78612;SDS011;67933;51.060;3.638;2023-05-17T03:56:10;4.65;;;3.08;;
78612;SDS011;67933;51.060;3.638;2023-05-17T03:58:36;5.72;;;3.55;;
78612;SDS011;67933;51.060;3.638;2023-05-17T04:01:01;5.97;;;3.42;;
78612;SDS011;67933;51.060;3.638;2023-05-17T04:03:27;6.00;;;3.85;;
78612;SDS011;67933;51.060;3.638;2023-05-17T04:05:53;8.93;;;4.63;;
78612;SDS011;67933;51.060;3.638;2023-05-17T04:08:24;6.97;;;4.65;;
78612;SDS011;67933;51.060;3.638;2023-05-17T04:10:50;9.82;;;4.78;;
78612;SDS011;67933;51.060;3.638;2023-05-17T04:13:15;7.88;;;4.53;;
78612;SDS011;67933;51.060;3.638;2023-05-17T04:15:41;10.35;;;5.03;;
78612;SDS011;67933;51.060;3.638;2023-05-17T04:18:06;8.82;;;4.93;;
78612;SDS011;67933;51.060;3.638;2023-05-17T04:20:31;10.05;;;4.95;;
78612;SDS011;67933;51.060;3.638;2023-05-17T04:22:58;8.98;;;4.53;;
78612;SDS011;67933;51.060;3.638;2023-05-17T04:25:24;7.97;;;4.88;;
78612;SDS011;67933;51.060;3.638;2023-05-17T04:27:49;7.50;;;4.82;;
78612;SDS011;67933;51.060;3.638;2023-05-17T04:30:14;10.77;;;5.10;;
78612;SDS011;67933;51.060;3.638;2023-05-17T04:32:40;9.43;;;5.65;;
78612;SDS011;67933;51.060;3.638;2023-05-17T04:35:07;10.73;;;5.28;;
78612;SDS011;67933;51.060;3.638;2023-05-17T04:37:33;8.25;;;4.53;;
78612;SDS011;67933;51.060;3.638;2023-05-17T04:39:58;5.00;;;3.63;;
78612;SDS011;67933;51.060;3.638;2023-05-17T04:42:23;6.47;;;3.65;;
78612;SDS011;67933;51.060;3.638;2023-05-17T04:44:49;8.85;;;3.58;;
78612;SDS011;67933;51.060;3.638;2023-05-17T04:47:14;7.38;;;4.25;;
78612;SDS011;67933;51.060;3.638;2023-05-17T04:49:40;6.75;;;4.13;;
78612;SDS011;67933;51.060;3.638;2023-05-17T04:52:05;6.93;;;4.00;;
78612;SDS011;67933;51.060;3.638;2023-05-17T04:54:31;7.35;;;4.22;;
78612;SDS011;67933;51.060;3.638;2023-05-17T04:56:56;6.75;;;5.15;;
78612;SDS011;67933;51.060;3.638;2023-05-17T04:59:21;10.15;;;4.50;;
78612;SDS011;67933;51.060;3.638;2023-05-17T05:01:47;9.95;;;4.50;;
78612;SDS011;67933;51.060;3.638;2023-05-17T05:04:12;8.70;;;5.78;;
78612;SDS011;67933;51.060;3.638;2023-05-17T05:06:38;15.93;;;6.03;;
78612;SDS011;67933;51.060;3.638;2023-05-17T05:09:03;7.78;;;4.32;;
78612;SDS011;67933;51.060;3.638;2023-05-17T05:11:29;8.18;;;4.65;;
78612;SDS011;67933;51.060;3.638;2023-05-17T05:13:55;8.57;;;4.75;;
78612;SDS011;67933;51.060;3.638;2023-05-17T05:16:22;7.47;;;4.70;;
78612;SDS011;67933;51.060;3.638;2023-05-17T05:18:49;7.85;;;5.07;;
78612;SDS011;67933;51.060;3.638;2023-05-17T05:21:14;9.85;;;4.35;;
78612;SDS011;67933;51.060;3.638;2023-05-17T05:23:39;8.90;;;5.10;;
78612;SDS011;67933;51.060;3.638;2023-05-17T05:26:05;8.77;;;4.82;;
78612;SDS011;67933;51.060;3.638;2023-05-17T05:28:30;10.52;;;5.45;;
78612;SDS011;67933;51.060;3.638;2023-05-17T05:30:56;7.57;;;5.18;;
78612;SDS011;67933;51.060;3.638;2023-05-17T05:33:23;10.98;;;5.10;;
78612;SDS011;67933;51.060;3.638;2023-05-17T05:35:48;10.15;;;5.05;;
78612;SDS011;67933;51.060;3.638;2023-05-17T05:38:14;11.40;;;5.72;;
78612;SDS011;67933;51.060;3.638;2023-05-17T05:40:39;9.88;;;4.95;;
78612;SDS011;67933;51.060;3.638;2023-05-17T05:43:05;8.95;;;4.93;;
78612;SDS011;67933;51.060;3.638;2023-05-17T05:45:30;10.88;;;5.38;;
78612;SDS011;67933;51.060;3.638;2023-05-17T05:47:56;13.10;;;5.50;;
78612;SDS011;67933;51.060;3.638;2023-05-17T05:50:21;9.70;;;5.60;;
78612;SDS011;67933;51.060;3.638;2023-05-17T05:52:46;10.25;;;5.47;;
78612;SDS011;67933;51.060;3.638;2023-05-17T05:55:12;9.80;;;5.13;;
78612;SDS011;67933;51.060;3.638;2023-05-17T05:57:37;9.80;;;4.72;;
78612;SDS011;67933;51.060;3.638;2023-05-17T06:00:03;7.85;;;4.80;;
78612;SDS011;67933;51.060;3.638;2023-05-17T06:02:29;8.85;;;4.68;;
78612;SDS011;67933;51.060;3.638;2023-05-17T06:04:54;8.63;;;4.68;;
78612;SDS011;67933;51.060;3.638;2023-05-17T06:07:20;8.80;;;4.93;;
78612;SDS011;67933;51.060;3.638;2023-05-17T06:09:45;10.45;;;4.60;;
78612;SDS011;67933;51.060;3.638;2023-05-17T06:12:11;7.55;;;4.40;;
78612;SDS011;67933;51.060;3.638;2023-05-17T06:14:36;13.43;;;5.35;;
78612;SDS011;67933;51.060;3.638;2023-05-17T06:17:02;9.20;;;5.00;;
78612;SDS011;67933;51.060;3.638;2023-05-17T06:19:28;12.02;;;5.35;;
78612;SDS011;67933;51.060;3.638;2023-05-17T06:21:53;11.52;;;6.18;;
78612;SDS011;67933;51.060;3.638;2023-05-17T06:24:19;8.75;;;5.20;;
78612;SDS011;67933;51.060;3.638;2023-05-17T06:26:44;12.52;;;4.95;;
78612;SDS011;67933;51.060;3.638;2023-05-17T06:29:11;8.52;;;4.35;;
78612;SDS011;67933;51.060;3.638;2023-05-17T06:31:36;9.75;;;5.00;;
78612;SDS011;67933;51.060;3.638;2023-05-17T06:34:02;10.32;;;4.80;;
78612;SDS011;67933;51.060;3.638;2023-05-17T06:36:27;9.93;;;4.32;;
78612;SDS011;67933;51.060;3.638;2023-05-17T06:38:52;11.10;;;4.03;;
78612;SDS011;67933;51.060;3.638;2023-05-17T06:41:18;8.00;;;4.25;;
78612;SDS011;67933;51.060;3.638;2023-05-17T06:43:44;9.45;;;4.00;;
78612;SDS011;67933;51.060;3.638;2023-05-17T06:46:10;13.32;;;4.15;;
78612;SDS011;67933;51.060;3.638;2023-05-17T06:48:35;8.55;;;3.72;;
78612;SDS011;67933;51.060;3.638;2023-05-17T06:51:01;11.43;;;4.35;;
78612;SDS011;67933;51.060;3.638;2023-05-17T06:53:26;11.45;;;3.70;;
78612;SDS011;67933;51.060;3.638;2023-05-17T06:55:51;8.23;;;3.47;;
78612;SDS011;67933;51.060;3.638;2023-05-17T06:58:17;7.55;;;3.50;;
78612;SDS011;67933;51.060;3.638;2023-05-17T07:00:42;9.63;;;3.95;;
78612;SDS011;67933;51.060;3.638;2023-05-17T07:03:08;11.02;;;4.22;;
78612;SDS011;67933;51.060;3.638;2023-05-17T07:05:34;7.45;;;4.05;;
78612;SDS011;67933;51.060;3.638;2023-05-17T07:08:00;12.35;;;3.85;;
78612;SDS011;67933;51.060;3.638;2023-05-17T07:10:25;10.43;;;4.07;;
78612;SDS011;67933;51.060;3.638;2023-05-17T07:12:51;8.85;;;3.50;;
78612;SDS011;67933;51.060;3.638;2023-05-17T07:15:16;9.13;;;3.92;;
78612;SDS011;67933;51.060;3.638;2023-05-17T07:17:42;10.52;;;3.67;;
78612;SDS011;67933;51.060;3.638;2023-05-17T07:20:07;9.15;;;3.20;;
78612;SDS011;67933;51.060;3.638;2023-05-17T07:22:33;10.57;;;3.88;;
78612;SDS011;67933;51.060;3.638;2023-05-17T07:24:59;9.35;;;3.42;;
78612;SDS011;67933;51.060;3.638;2023-05-17T07:27:24;9.98;;;4.00;;
78612;SDS011;67933;51.060;3.638;2023-05-17T07:29:49;9.70;;;3.75;;
78612;SDS011;67933;51.060;3.638;2023-05-17T07:32:15;8.93;;;3.53;;
78612;SDS011;67933;51.060;3.638;2023-05-17T07:34:41;10.73;;;3.20;;
78612;SDS011;67933;51.060;3.638;2023-05-17T07:37:07;7.68;;;3.17;;
78612;SDS011;67933;51.060;3.638;2023-05-17T07:39:32;10.00;;;3.38;;
78612;SDS011;67933;51.060;3.638;2023-05-17T07:41:58;8.00;;;3.70;;
78612;SDS011;67933;51.060;3.638;2023-05-17T07:44:23;11.35;;;3.60;;
78612;SDS011;67933;51.060;3.638;2023-05-17T07:46:49;8.95;;;3.03;;
78612;SDS011;67933;51.060;3.638;2023-05-17T07:49:14;5.47;;;2.55;;
78612;SDS011;67933;51.060;3.638;2023-05-17T07:51:39;10.15;;;3.50;;
78612;SDS011;67933;51.060;3.638;2023-05-17T07:54:05;6.60;;;2.55;;
78612;SDS011;67933;51.060;3.638;2023-05-17T07:56:30;7.18;;;3.00;;
78612;SDS011;67933;51.060;3.638;2023-05-17T07:58:57;4.90;;;2.53;;
78612;SDS011;67933;51.060;3.638;2023-05-17T08:01:23;7.50;;;3.15;;
78612;SDS011;67933;51.060;3.638;2023-05-17T08:03:50;6.68;;;2.63;;
78612;SDS011;67933;51.060;3.638;2023-05-17T08:06:16;5.10;;;2.75;;
78612;SDS011;67933;51.060;3.638;2023-05-17T08:08:42;5.18;;;2.83;;
78612;SDS011;67933;51.060;3.638;2023-05-17T08:11:09;7.30;;;3.20;;
78612;SDS011;67933;51.060;3.638;2023-05-17T08:13:35;7.00;;;2.38;;
78612;SDS011;67933;51.060;3.638;2023-05-17T08:16:00;5.93;;;2.45;;
78612;SDS011;67933;51.060;3.638;2023-05-17T08:18:28;4.53;;;2.15;;
78612;SDS011;67933;51.060;3.638;2023-05-17T08:20:54;6.63;;;2.20;;
78612;SDS011;67933;51.060;3.638;2023-05-17T08:23:20;5.68;;;1.95;;
78612;SDS011;67933;51.060;3.638;2023-05-17T08:25:46;5.97;;;2.25;;
78612;SDS011;67933;51.060;3.638;2023-05-17T08:28:11;8.55;;;2.58;;
78612;SDS011;67933;51.060;3.638;2023-05-17T08:30:37;5.80;;;2.20;;
78612;SDS011;67933;51.060;3.638;2023-05-17T08:33:02;6.70;;;2.38;;
78612;SDS011;67933;51.060;3.638;2023-05-17T08:35:27;6.28;;;2.38;;
78612;SDS011;67933;51.060;3.638;2023-05-17T08:37:53;5.75;;;2.40;;
78612;SDS011;67933;51.060;3.638;2023-05-17T08:40:19;6.55;;;2.50;;
78612;SDS011;67933;51.060;3.638;2023-05-17T08:42:45;8.05;;;2.50;;
78612;SDS011;67933;51.060;3.638;2023-05-17T08:45:11;7.47;;;2.42;;
78612;SDS011;67933;51.060;3.638;2023-05-17T08:47:38;10.00;;;3.03;;
78612;SDS011;67933;51.060;3.638;2023-05-17T08:50:06;6.75;;;3.38;;
78612;SDS011;67933;51.060;3.638;2023-05-17T08:52:32;6.57;;;2.45;;
78612;SDS011;67933;51.060;3.638;2023-05-17T08:54:59;7.30;;;2.60;;
78612;SDS011;67933;51.060;3.638;2023-05-17T08:57:28;5.40;;;2.00;;
78612;SDS011;67933;51.060;3.638;2023-05-17T08:59:55;5.50;;;1.75;;
78612;SDS011;67933;51.060;3.638;2023-05-17T09:02:22;4.28;;;2.03;;
78612;SDS011;67933;51.060;3.638;2023-05-17T09:04:48;6.07;;;2.17;;
78612;SDS011;67933;51.060;3.638;2023-05-17T09:07:19;4.80;;;2.10;;
78612;SDS011;67933;51.060;3.638;2023-05-17T09:09:51;8.45;;;2.13;;
78612;SDS011;67933;51.060;3.638;2023-05-17T09:12:17;5.28;;;2.08;;
78612;SDS011;67933;51.060;3.638;2023-05-17T09:14:43;6.03;;;2.20;;
78612;SDS011;67933;51.060;3.638;2023-05-17T09:17:12;8.93;;;2.75;;
78612;SDS011;67933;51.060;3.638;2023-05-17T09:19:42;7.20;;;2.67;;
78612;SDS011;67933;51.060;3.638;2023-05-17T09:22:11;7.07;;;2.47;;
78612;SDS011;67933;51.060;3.638;2023-05-17T09:24:38;6.68;;;2.58;;
78612;SDS011;67933;51.060;3.638;2023-05-17T09:27:04;8.07;;;2.35;;
78612;SDS011;67933;51.060;3.638;2023-05-17T09:29:30;7.63;;;1.73;;
78612;SDS011;67933;51.060;3.638;2023-05-17T09:31:57;5.68;;;2.00;;
78612;SDS011;67933;51.060;3.638;2023-05-17T09:34:36;8.45;;;2.33;;
78612;SDS011;67933;51.060;3.638;2023-05-17T09:37:04;7.32;;;1.98;;
78612;SDS011;67933;51.060;3.638;2023-05-17T09:39:30;6.60;;;2.42;;
78612;SDS011;67933;51.060;3.638;2023-05-17T09:41:56;7.30;;;2.47;;
78612;SDS011;67933;51.060;3.638;2023-05-17T09:44:23;7.15;;;2.10;;
78612;SDS011;67933;51.060;3.638;2023-05-17T09:46:49;7.45;;;2.47;;
78612;SDS011;67933;51.060;3.638;2023-05-17T09:49:15;6.43;;;2.05;;
78612;SDS011;67933;51.060;3.638;2023-05-17T09:51:42;7.53;;;2.10;;
78612;SDS011;67933;51.060;3.638;2023-05-17T09:54:09;9.18;;;2.60;;
78612;SDS011;67933;51.060;3.638;2023-05-17T09:56:35;6.15;;;2.10;;
78612;SDS011;67933;51.060;3.638;2023-05-17T09:59:01;5.80;;;2.05;;
78612;SDS011;67933;51.060;3.638;2023-05-17T10:01:27;9.90;;;2.30;;
78612;SDS011;67933;51.060;3.638;2023-05-17T10:03:54;7.05;;;2.25;;
78612;SDS011;67933;51.060;3.638;2023-05-17T10:06:21;5.30;;;2.00;;
78612;SDS011;67933;51.060;3.638;2023-05-17T10:08:51;5.18;;;2.00;;
78612;SDS011;67933;51.060;3.638;2023-05-17T10:11:29;6.75;;;2.22;;
78612;SDS011;67933;51.060;3.638;2023-05-17T10:14:12;6.00;;;2.10;;
78612;SDS011;67933;51.060;3.638;2023-05-17T10:16:51;7.90;;;1.98;;
78612;SDS011;67933;51.060;3.638;2023-05-17T10:21:46;6.45;;;1.60;;
78612;SDS011;67933;51.060;3.638;2023-05-17T10:24:12;2.97;;;1.33;;
78612;SDS011;67933;51.060;3.638;2023-05-17T10:26:38;4.50;;;1.52;;
78612;SDS011;67933;51.060;3.638;2023-05-17T10:29:05;4.25;;;1.25;;
78612;SDS011;67933;51.060;3.638;2023-05-17T10:31:32;6.03;;;1.55;;
78612;SDS011;67933;51.060;3.638;2023-05-17T10:36:32;9.27;;;1.70;;
78612;SDS011;67933;51.060;3.638;2023-05-17T10:38:58;6.47;;;1.70;;
78612;SDS011;67933;51.060;3.638;2023-05-17T10:41:29;6.95;;;1.63;;
78612;SDS011;67933;51.060;3.638;2023-05-17T10:43:57;5.45;;;1.70;;
78612;SDS011;67933;51.060;3.638;2023-05-17T10:46:25;5.75;;;1.80;;
78612;SDS011;67933;51.060;3.638;2023-05-17T10:48:55;7.15;;;1.90;;
78612;SDS011;67933;51.060;3.638;2023-05-17T10:51:23;5.30;;;1.95;;
78612;SDS011;67933;51.060;3.638;2023-05-17T10:54:12;6.10;;;1.50;;
78612;SDS011;67933;51.060;3.638;2023-05-17T10:56:52;6.65;;;1.77;;
78612;SDS011;67933;51.060;3.638;2023-05-17T10:59:21;6.07;;;1.75;;
78612;SDS011;67933;51.060;3.638;2023-05-17T11:04:22;4.70;;;1.35;;
78612;SDS011;67933;51.060;3.638;2023-05-17T11:06:53;4.80;;;1.58;;
78612;SDS011;67933;51.060;3.638;2023-05-17T11:09:39;6.03;;;1.70;;
78612;SDS011;67933;51.060;3.638;2023-05-17T11:17:13;9.10;;;2.03;;
78612;SDS011;67933;51.060;3.638;2023-05-17T11:22:39;5.15;;;1.23;;
78612;SDS011;67933;51.060;3.638;2023-05-17T11:25:15;4.72;;;1.40;;
78612;SDS011;67933;51.060;3.638;2023-05-17T11:27:48;6.15;;;1.70;;
78612;SDS011;67933;51.060;3.638;2023-05-17T11:30:25;7.22;;;2.22;;
78612;SDS011;67933;51.060;3.638;2023-05-17T11:32:59;5.07;;;1.75;;
78612;SDS011;67933;51.060;3.638;2023-05-17T11:35:27;4.93;;;1.45;;
78612;SDS011;67933;51.060;3.638;2023-05-17T11:39:07;5.63;;;1.70;;
78612;SDS011;67933;51.060;3.638;2023-05-17T11:40:55;4.43;;;1.45;;
78612;SDS011;67933;51.060;3.638;2023-05-17T11:43:22;6.47;;;1.92;;
78612;SDS011;67933;51.060;3.638;2023-05-17T11:48:15;7.53;;;1.77;;
78612;SDS011;67933;51.060;3.638;2023-05-17T11:50:43;7.68;;;1.85;;
78612;SDS011;67933;51.060;3.638;2023-05-17T11:53:09;6.05;;;1.38;;
78612;SDS011;67933;51.060;3.638;2023-05-17T11:55:36;6.38;;;1.80;;
78612;SDS011;67933;51.060;3.638;2023-05-17T11:58:04;6.55;;;1.83;;
78612;SDS011;67933;51.060;3.638;2023-05-17T12:00:32;5.82;;;1.90;;
78612;SDS011;67933;51.060;3.638;2023-05-17T12:02:57;6.70;;;1.75;;
78612;SDS011;67933;51.060;3.638;2023-05-17T12:05:23;8.60;;;2.20;;
78612;SDS011;67933;51.060;3.638;2023-05-17T12:07:49;6.57;;;1.50;;
78612;SDS011;67933;51.060;3.638;2023-05-17T12:10:16;4.03;;;1.80;;
78612;SDS011;67933;51.060;3.638;2023-05-17T12:12:42;14.05;;;1.85;;
78612;SDS011;67933;51.060;3.638;2023-05-17T12:15:08;7.25;;;1.67;;
78612;SDS011;67933;51.060;3.638;2023-05-17T12:17:36;7.45;;;2.17;;
78612;SDS011;67933;51.060;3.638;2023-05-17T12:20:08;7.85;;;1.80;;
78612;SDS011;67933;51.060;3.638;2023-05-17T12:22:49;9.68;;;1.90;;
78612;SDS011;67933;51.060;3.638;2023-05-17T12:25:17;9.73;;;1.90;;
78612;SDS011;67933;51.060;3.638;2023-05-17T12:27:43;7.97;;;1.88;;
78612;SDS011;67933;51.060;3.638;2023-05-17T12:30:15;6.43;;;1.52;;
78612;SDS011;67933;51.060;3.638;2023-05-17T12:32:41;7.82;;;2.17;;
78612;SDS011;67933;51.060;3.638;2023-05-17T12:35:07;5.22;;;1.67;;
78612;SDS011;67933;51.060;3.638;2023-05-17T12:37:33;6.65;;;1.70;;
78612;SDS011;67933;51.060;3.638;2023-05-17T12:39:58;5.97;;;1.58;;
78612;SDS011;67933;51.060;3.638;2023-05-17T12:42:27;6.10;;;1.42;;
78612;SDS011;67933;51.060;3.638;2023-05-17T12:44:52;5.05;;;1.52;;
78612;SDS011;67933;51.060;3.638;2023-05-17T12:47:18;7.85;;;1.85;;
78612;SDS011;67933;51.060;3.638;2023-05-17T12:49:51;3.17;;;1.10;;
78612;SDS011;67933;51.060;3.638;2023-05-17T12:52:18;5.07;;;1.88;;
78612;SDS011;67933;51.060;3.638;2023-05-17T12:54:43;6.47;;;1.70;;
78612;SDS011;67933;51.060;3.638;2023-05-17T12:57:11;5.38;;;1.23;;
78612;SDS011;67933;51.060;3.638;2023-05-17T12:59:50;5.88;;;1.80;;
78612;SDS011;67933;51.060;3.638;2023-05-17T13:02:19;5.13;;;1.88;;
78612;SDS011;67933;51.060;3.638;2023-05-17T13:04:45;7.05;;;1.95;;
78612;SDS011;67933;51.060;3.638;2023-05-17T13:07:19;4.00;;;1.60;;
78612;SDS011;67933;51.060;3.638;2023-05-17T13:09:46;5.13;;;1.55;;
78612;SDS011;67933;51.060;3.638;2023-05-17T13:12:17;7.55;;;1.60;;
78612;SDS011;67933;51.060;3.638;2023-05-17T13:14:48;5.75;;;1.23;;
78612;SDS011;67933;51.060;3.638;2023-05-17T13:19:58;3.67;;;1.30;;
78612;SDS011;67933;51.060;3.638;2023-05-17T13:22:24;4.28;;;1.85;;
78612;SDS011;67933;51.060;3.638;2023-05-17T13:24:50;6.18;;;1.50;;
78612;SDS011;67933;51.060;3.638;2023-05-17T13:27:15;5.38;;;1.40;;
78612;SDS011;67933;51.060;3.638;2023-05-17T13:29:41;10.55;;;1.95;;
78612;SDS011;67933;51.060;3.638;2023-05-17T13:32:08;5.68;;;1.50;;
78612;SDS011;67933;51.060;3.638;2023-05-17T13:34:35;4.68;;;1.55;;
78612;SDS011;67933;51.060;3.638;2023-05-17T13:37:01;4.15;;;1.30;;
78612;SDS011;67933;51.060;3.638;2023-05-17T13:39:26;4.97;;;1.40;;
78612;SDS011;67933;51.060;3.638;2023-05-17T13:41:52;4.78;;;1.30;;
78612;SDS011;67933;51.060;3.638;2023-05-17T13:44:17;6.25;;;1.67;;
78612;SDS011;67933;51.060;3.638;2023-05-17T13:46:43;6.35;;;1.15;;
78612;SDS011;67933;51.060;3.638;2023-05-17T13:49:08;4.53;;;1.35;;
78612;SDS011;67933;51.060;3.638;2023-05-17T13:51:33;5.60;;;1.60;;
78612;SDS011;67933;51.060;3.638;2023-05-17T13:53:59;7.88;;;1.40;;
78612;SDS011;67933;51.060;3.638;2023-05-17T13:56:25;7.60;;;1.33;;
78612;SDS011;67933;51.060;3.638;2023-05-17T13:58:51;4.07;;;1.25;;
78612;SDS011;67933;51.060;3.638;2023-05-17T14:01:16;4.88;;;1.60;;
78612;SDS011;67933;51.060;3.638;2023-05-17T14:03:43;4.53;;;1.27;;
78612;SDS011;67933;51.060;3.638;2023-05-17T14:06:09;5.95;;;1.55;;
78612;SDS011;67933;51.060;3.638;2023-05-17T14:08:34;5.05;;;1.50;;
78612;SDS011;67933;51.060;3.638;2023-05-17T14:11:00;4.88;;;1.45;;
78612;SDS011;67933;51.060;3.638;2023-05-17T14:13:25;6.40;;;1.13;;
78612;SDS011;67933;51.060;3.638;2023-05-17T14:15:51;10.93;;;2.13;;
78612;SDS011;67933;51.060;3.638;2023-05-17T14:18:17;7.63;;;1.90;;
78612;SDS011;67933;51.060;3.638;2023-05-17T14:20:42;5.10;;;2.08;;
78612;SDS011;67933;51.060;3.638;2023-05-17T14:23:07;2.67;;;1.40;;
78612;SDS011;67933;51.060;3.638;2023-05-17T14:25:33;6.70;;;1.45;;
78612;SDS011;67933;51.060;3.638;2023-05-17T14:27:58;5.10;;;1.60;;
78612;SDS011;67933;51.060;3.638;2023-05-17T14:30:24;6.32;;;1.45;;
78612;SDS011;67933;51.060;3.638;2023-05-17T14:32:49;6.45;;;2.03;;
78612;SDS011;67933;51.060;3.638;2023-05-17T14:35:15;6.07;;;1.83;;
78612;SDS011;67933;51.060;3.638;2023-05-17T14:37:43;8.15;;;1.67;;
78612;SDS011;67933;51.060;3.638;2023-05-17T14:40:08;6.57;;;1.50;;
78612;SDS011;67933;51.060;3.638;2023-05-17T14:42:36;6.25;;;2.08;;
78612;SDS011;67933;51.060;3.638;2023-05-17T14:45:01;8.55;;;1.50;;
78612;SDS011;67933;51.060;3.638;2023-05-17T14:47:27;7.55;;;1.52;;
78612;SDS011;67933;51.060;3.638;2023-05-17T14:49:52;7.72;;;1.58;;
78612;SDS011;67933;51.060;3.638;2023-05-17T14:52:18;4.97;;;1.73;;
78612;SDS011;67933;51.060;3.638;2023-05-17T14:54:43;3.88;;;1.10;;
78612;SDS011;67933;51.060;3.638;2023-05-17T14:57:09;5.22;;;1.73;;
78612;SDS011;67933;51.060;3.638;2023-05-17T14:59:36;10.40;;;2.05;;
78612;SDS011;67933;51.060;3.638;2023-05-17T15:02:02;5.28;;;1.42;;
78612;SDS011;67933;51.060;3.638;2023-05-17T15:04:28;4.20;;;1.30;;
78612;SDS011;67933;51.060;3.638;2023-05-17T15:06:54;7.07;;;1.55;;
78612;SDS011;67933;51.060;3.638;2023-05-17T15:09:19;5.40;;;1.65;;
78612;SDS011;67933;51.060;3.638;2023-05-17T15:11:46;5.20;;;1.27;;
78612;SDS011;67933;51.060;3.638;2023-05-17T15:14:12;4.82;;;1.40;;
78612;SDS011;67933;51.060;3.638;2023-05-17T15:16:38;6.40;;;1.58;;